createdAt,value
2022-09-24T00:01:35.519Z,13.90
2022-09-24T00:04:08.694Z,13.90
2022-09-24T00:06:40.923Z,13.90
2022-09-24T00:09:07.811Z,13.90
2022-09-24T00:11:35.681Z,13.90
2022-09-24T00:14:02.615Z,13.80
2022-09-24T00:16:33.962Z,13.80
2022-09-24T00:19:02.884Z,13.70
2022-09-24T00:21:39.687Z,13.70
2022-09-24T00:24:09.445Z,13.70
2022-09-24T00:26:51.866Z,13.70
2022-09-24T00:29:24.267Z,13.70
2022-09-24T00:31:52.775Z,13.70
2022-09-24T00:34:20.042Z,13.60
2022-09-24T00:36:46.943Z,13.70
2022-09-24T00:39:14.721Z,13.60
2022-09-24T00:41:47.089Z,13.70
2022-09-24T00:44:45.063Z,13.60
2022-09-24T00:47:14.206Z,13.60
2022-09-24T00:49:42.102Z,13.60
2022-09-24T00:52:09.039Z,13.60
2022-09-24T00:54:37.309Z,13.60
2022-09-24T00:57:04.342Z,13.60
2022-09-24T00:59:31.398Z,13.60
2022-09-24T01:01:59.121Z,13.60
2022-09-24T01:04:28.473Z,13.60
2022-09-24T01:06:56.505Z,13.60
2022-09-24T01:09:25.909Z,13.50
2022-09-24T01:11:59.318Z,13.60
2022-09-24T01:14:47.135Z,13.50
2022-09-24T01:17:47.658Z,13.50
2022-09-24T01:20:34.576Z,13.60
2022-09-24T01:23:17.127Z,13.60
2022-09-24T01:25:54.601Z,13.60
2022-09-24T01:28:58.810Z,13.60
2022-09-24T01:31:44.451Z,13.60
2022-09-24T01:34:15.558Z,13.60
2022-09-24T01:36:45.361Z,13.60
2022-09-24T01:39:14.656Z,13.50
2022-09-24T01:41:43.106Z,13.50
2022-09-24T01:44:11.806Z,13.40
2022-09-24T01:46:39.564Z,13.50
2022-09-24T01:49:07.293Z,13.50
2022-09-24T01:51:45.302Z,13.50
2022-09-24T01:54:25.230Z,13.50
2022-09-24T01:56:57.976Z,13.50
2022-09-24T01:59:30.578Z,13.40
2022-09-24T02:02:16.643Z,13.50
2022-09-24T02:04:47.618Z,13.40
2022-09-24T02:07:19.294Z,13.40
2022-09-24T02:09:46.166Z,13.40
2022-09-24T02:12:29.553Z,13.40
2022-09-24T02:15:10.801Z,13.40
2022-09-24T02:17:41.210Z,13.40
2022-09-24T02:20:14.653Z,13.50
2022-09-24T02:22:43.570Z,13.40
2022-09-24T02:25:15.397Z,13.40
2022-09-24T02:27:42.156Z,13.40
2022-09-24T02:30:10.189Z,13.40
2022-09-24T02:32:39.949Z,13.40
2022-09-24T02:35:10.246Z,13.40
2022-09-24T02:37:39.983Z,13.40
2022-09-24T02:40:09.550Z,13.30
2022-09-24T02:42:37.783Z,13.30
2022-09-24T02:45:05.454Z,13.30
2022-09-24T02:47:32.482Z,13.30
2022-09-24T02:49:59.416Z,13.30
2022-09-24T02:52:26.447Z,13.30
2022-09-24T02:54:53.220Z,13.30
2022-09-24T02:57:20.385Z,13.30
2022-09-24T02:59:47.148Z,13.20
2022-09-24T03:02:15.184Z,13.30
2022-09-24T03:04:42.562Z,13.20
2022-09-24T03:07:10.232Z,13.20
2022-09-24T03:09:36.963Z,13.20
2022-09-24T03:12:05.115Z,13.20
2022-09-24T03:14:31.899Z,13.20
2022-09-24T03:16:58.637Z,13.20
2022-09-24T03:19:25.368Z,13.20
2022-09-24T03:21:52.463Z,13.10
2022-09-24T03:24:19.222Z,13.20
2022-09-24T03:26:45.874Z,13.20
2022-09-24T03:29:12.682Z,13.20
2022-09-24T03:31:39.455Z,13.20
2022-09-24T03:34:06.265Z,13.20
2022-09-24T03:36:32.998Z,13.20
2022-09-24T03:38:59.725Z,13.10
2022-09-24T03:41:27.661Z,13.10
2022-09-24T03:43:55.094Z,13.10
2022-09-24T03:46:24.265Z,13.10
2022-09-24T03:48:51.099Z,13.00
2022-09-24T03:51:20.078Z,13.10
2022-09-24T03:53:47.988Z,13.10
2022-09-24T03:56:16.005Z,13.00
2022-09-24T03:58:47.369Z,13.00
2022-09-24T04:01:21.844Z,13.00
2022-09-24T04:03:50.344Z,13.00
2022-09-24T04:06:22.094Z,13.00
2022-09-24T04:08:51.665Z,12.90
2022-09-24T04:11:18.367Z,13.00
2022-09-24T04:13:45.168Z,12.90
2022-09-24T04:16:12.081Z,12.90
2022-09-24T04:18:39.660Z,12.90
2022-09-24T04:21:06.894Z,12.90
2022-09-24T04:23:34.001Z,12.90
2022-09-24T04:26:02.250Z,12.90
2022-09-24T04:28:30.302Z,12.80
2022-09-24T04:30:57.274Z,12.80
2022-09-24T04:33:24.137Z,12.80
2022-09-24T04:35:50.773Z,12.80
2022-09-24T04:38:18.658Z,12.80
2022-09-24T04:40:47.377Z,12.70
2022-09-24T04:43:14.398Z,12.70
2022-09-24T04:45:43.150Z,12.70
2022-09-24T04:48:10.019Z,12.70
2022-09-24T04:50:43.291Z,12.70
2022-09-24T04:53:12.404Z,12.70
2022-09-24T04:55:39.570Z,12.70
2022-09-24T04:58:06.531Z,12.70
2022-09-24T05:00:33.460Z,12.70
2022-09-24T05:03:04.969Z,12.70
2022-09-24T05:05:33.064Z,12.70
2022-09-24T05:08:01.623Z,12.70
2022-09-24T05:10:29.895Z,12.70
2022-09-24T05:12:56.789Z,12.70
2022-09-24T05:15:23.789Z,12.70
2022-09-24T05:17:50.570Z,12.70
2022-09-24T05:20:17.531Z,12.70
2022-09-24T05:22:45.953Z,12.60
2022-09-24T05:25:14.362Z,12.60
2022-09-24T05:27:48.507Z,12.60
2022-09-24T05:30:16.281Z,12.60
2022-09-24T05:32:43.335Z,12.60
2022-09-24T05:35:10.430Z,12.60
2022-09-24T05:37:39.467Z,12.50
2022-09-24T05:40:25.812Z,12.50
2022-09-24T05:42:59.155Z,12.50
2022-09-24T05:45:25.821Z,12.50
2022-09-24T05:47:52.762Z,12.50
2022-09-24T05:50:19.463Z,12.50
2022-09-24T05:52:46.235Z,12.50
2022-09-24T05:55:13.127Z,12.50
2022-09-24T05:57:39.925Z,12.50
2022-09-24T06:00:07.501Z,12.50
2022-09-24T06:02:34.347Z,12.50
2022-09-24T06:05:01.112Z,12.50
2022-09-24T06:07:27.942Z,12.50
2022-09-24T06:09:55.337Z,12.60
2022-09-24T06:12:22.408Z,12.60
2022-09-24T06:14:49.151Z,12.60
2022-09-24T06:17:15.842Z,12.60
2022-09-24T06:19:42.974Z,12.60
2022-09-24T06:22:09.774Z,12.70
2022-09-24T06:24:37.048Z,12.70
2022-09-24T06:27:03.885Z,12.70
2022-09-24T06:29:30.596Z,12.70
2022-09-24T06:31:57.284Z,12.80
2022-09-24T06:34:24.092Z,12.80
2022-09-24T06:36:55.075Z,12.90
2022-09-24T06:39:23.802Z,12.90
2022-09-24T06:41:51.507Z,12.90
2022-09-24T06:44:19.219Z,13.00
2022-09-24T06:46:47.263Z,13.00
2022-09-24T06:49:14.217Z,13.00
2022-09-24T06:51:40.950Z,13.00
2022-09-24T06:54:09.039Z,13.10
2022-09-24T06:56:35.843Z,13.10
2022-09-24T06:59:02.686Z,13.10
2022-09-24T07:01:29.816Z,13.10
2022-09-24T07:03:56.646Z,13.10
2022-09-24T07:06:23.464Z,13.10
2022-09-24T07:08:53.401Z,13.20
2022-09-24T07:11:20.222Z,13.30
2022-09-24T07:13:46.950Z,13.40
2022-09-24T07:16:13.947Z,13.40
2022-09-24T07:18:40.647Z,13.40
2022-09-24T07:21:07.405Z,13.40
2022-09-24T07:23:34.839Z,13.50
2022-09-24T07:26:01.575Z,13.50
2022-09-24T07:28:28.328Z,13.60
2022-09-24T07:30:59.507Z,13.60
2022-09-24T07:33:26.633Z,13.70
2022-09-24T07:35:53.445Z,13.70
2022-09-24T07:38:20.233Z,13.80
2022-09-24T07:40:47.034Z,13.80
2022-09-24T07:43:14.673Z,13.80
2022-09-24T07:45:42.574Z,13.90
2022-09-24T07:48:10.347Z,13.90
2022-09-24T07:50:41.777Z,14.00
2022-09-24T07:53:12.835Z,14.00
2022-09-24T07:55:41.071Z,14.10
2022-09-24T07:58:14.877Z,14.20
2022-09-24T08:00:41.738Z,14.20
2022-09-24T08:03:08.508Z,14.30
2022-09-24T08:05:35.275Z,14.30
2022-09-24T08:08:02.112Z,14.30
2022-09-24T08:10:29.210Z,14.30
2022-09-24T08:12:57.208Z,14.40
2022-09-24T08:15:24.329Z,14.40
2022-09-24T08:17:51.386Z,14.40
2022-09-24T08:20:18.272Z,14.50
2022-09-24T08:22:45.073Z,14.50
2022-09-24T08:25:11.829Z,14.60
2022-09-24T08:27:39.002Z,14.50
2022-09-24T08:30:06.891Z,14.60
2022-09-24T08:32:33.641Z,14.60
2022-09-24T08:35:00.520Z,14.70
2022-09-24T08:37:30.195Z,14.70
2022-09-24T08:39:57.437Z,14.80
2022-09-24T08:43:07.794Z,14.80
2022-09-24T08:46:01.416Z,14.80
2022-09-24T08:48:33.188Z,14.90
2022-09-24T08:51:04.469Z,15.00
2022-09-24T08:53:41.072Z,15.00
2022-09-24T08:56:09.798Z,15.10
2022-09-24T08:59:24.510Z,15.10
2022-09-24T09:02:13.410Z,15.20
2022-09-24T09:05:01.397Z,15.20
2022-09-24T09:07:49.079Z,15.30
2022-09-24T09:10:27.747Z,15.30
2022-09-24T09:13:00.418Z,15.30
2022-09-24T09:15:38.595Z,15.40
2022-09-24T09:18:31.373Z,15.50
2022-09-24T09:21:14.889Z,15.50
2022-09-24T09:23:48.471Z,15.50
2022-09-24T09:26:20.621Z,15.60
2022-09-24T09:28:48.508Z,15.70
2022-09-24T09:31:32.945Z,15.70
2022-09-24T09:34:18.710Z,15.80
2022-09-24T09:37:07.299Z,15.80
2022-09-24T09:39:53.702Z,15.90
2022-09-24T09:42:36.302Z,16.00
2022-09-24T09:45:29.712Z,16.00
2022-09-24T09:48:01.092Z,16.00
2022-09-24T09:50:39.386Z,16.10
2022-09-24T09:53:06.237Z,16.10
2022-09-24T09:55:37.501Z,16.10
2022-09-24T09:58:16.366Z,16.20
2022-09-24T10:00:43.876Z,16.30
2022-09-24T10:03:26.245Z,16.30
2022-09-24T10:06:06.326Z,16.30
2022-09-24T10:08:33.469Z,16.40
2022-09-24T10:11:01.553Z,16.30
2022-09-24T10:13:28.415Z,16.30
2022-09-24T10:16:00.654Z,16.30
2022-09-24T10:18:34.827Z,16.30
2022-09-24T10:21:09.950Z,16.30
2022-09-24T10:23:39.882Z,16.30
2022-09-24T10:26:07.623Z,16.30
2022-09-24T10:28:58.403Z,16.30
2022-09-24T10:31:29.431Z,16.30
2022-09-24T10:33:59.026Z,16.40
2022-09-24T10:36:32.582Z,16.40
2022-09-24T10:39:08.462Z,16.50
2022-09-24T10:41:35.909Z,16.50
2022-09-24T10:44:13.511Z,16.60
2022-09-24T10:47:05.111Z,16.60
2022-09-24T10:49:38.189Z,16.70
2022-09-24T10:52:10.282Z,16.70
2022-09-24T10:54:57.119Z,16.60
2022-09-24T10:58:20.262Z,16.60
2022-09-24T11:00:58.066Z,16.50
2022-09-24T11:04:00.957Z,16.60
2022-09-24T11:06:42.654Z,16.50
2022-09-24T11:09:38.970Z,16.50
2022-09-24T11:12:36.474Z,16.50
2022-09-24T11:15:06.359Z,16.50
2022-09-24T11:17:47.406Z,16.60
2022-09-24T11:20:37.598Z,16.60
2022-09-24T11:23:13.560Z,16.50
2022-09-24T11:25:51.363Z,16.50
2022-09-24T11:28:23.171Z,16.50
2022-09-24T11:30:56.500Z,16.50
2022-09-24T11:33:34.863Z,16.60
2022-09-24T11:36:36.326Z,16.60
2022-09-24T11:39:21.877Z,16.60
2022-09-24T11:42:06.631Z,16.50
2022-09-24T11:44:54.990Z,16.40
2022-09-24T11:47:45.358Z,16.40
2022-09-24T11:50:31.084Z,16.30
2022-09-24T11:53:05.038Z,16.30
2022-09-24T11:55:53.671Z,16.30
2022-09-24T11:58:35.142Z,16.30
2022-09-24T12:01:22.678Z,16.40
2022-09-24T12:03:57.076Z,16.30
2022-09-24T12:06:31.348Z,16.40
2022-09-24T12:09:07.407Z,16.50
2022-09-24T12:11:41.468Z,16.70
2022-09-24T12:14:17.443Z,16.80
2022-09-24T12:16:47.657Z,16.90
2022-09-24T12:19:41.140Z,17.00
2022-09-24T12:22:10.520Z,17.10
2022-09-24T12:24:42.606Z,17.10
2022-09-24T12:27:37.050Z,17.20
2022-09-24T12:30:40.227Z,17.20
2022-09-24T12:33:15.695Z,17.20
2022-09-24T12:36:04.431Z,17.10
2022-09-24T12:39:06.142Z,17.00
2022-09-24T12:41:45.903Z,17.00
2022-09-24T12:44:21.957Z,16.80
2022-09-24T12:46:53.085Z,16.80
2022-09-24T12:49:25.879Z,16.90
2022-09-24T12:51:55.701Z,17.00
2022-09-24T12:54:30.302Z,17.10
2022-09-24T12:57:15.102Z,17.30
2022-09-24T12:59:50.572Z,17.30
2022-09-24T13:02:25.943Z,17.40
2022-09-24T13:05:02.023Z,17.30
2022-09-24T13:07:37.634Z,17.30
2022-09-24T13:10:32.242Z,17.20
2022-09-24T13:13:00.502Z,17.20
2022-09-24T13:15:34.548Z,17.10
2022-09-24T13:18:11.042Z,17.10
2022-09-24T13:20:49.261Z,17.10
2022-09-24T13:23:20.402Z,17.10
2022-09-24T13:26:09.108Z,17.10
2022-09-24T13:28:58.565Z,17.10
2022-09-24T13:31:41.352Z,17.00
2022-09-24T13:34:11.148Z,17.00
2022-09-24T13:36:59.494Z,16.90
2022-09-24T13:39:45.957Z,16.90
2022-09-24T13:42:27.203Z,16.80
2022-09-24T13:45:00.472Z,16.70
2022-09-24T13:47:32.675Z,16.70
2022-09-24T13:50:07.197Z,16.70
2022-09-24T13:52:38.542Z,16.60
2022-09-24T13:55:21.523Z,16.60
2022-09-24T13:57:48.324Z,16.50
2022-09-24T14:00:21.098Z,16.40
2022-09-24T14:03:04.954Z,16.30
2022-09-24T14:05:38.653Z,16.20
2022-09-24T14:08:08.712Z,16.10
2022-09-24T14:10:36.552Z,16.10
2022-09-24T14:13:21.676Z,16.10
2022-09-24T14:15:57.804Z,16.00
2022-09-24T14:18:26.948Z,15.90
2022-09-24T14:21:33.242Z,15.90
2022-09-24T14:24:20.716Z,15.90
2022-09-24T14:26:56.460Z,15.90
2022-09-24T14:29:48.120Z,15.80
2022-09-24T14:32:32.381Z,15.80
2022-09-24T14:35:03.701Z,15.80
2022-09-24T14:37:37.756Z,15.80
2022-09-24T14:40:14.192Z,15.80
2022-09-24T14:42:47.074Z,15.80
2022-09-24T14:45:26.934Z,15.80
2022-09-24T14:48:01.986Z,15.80
2022-09-24T14:50:37.574Z,15.80
2022-09-24T14:53:23.679Z,15.70
2022-09-24T14:55:51.386Z,15.70
2022-09-24T14:58:31.158Z,15.70
2022-09-24T15:01:07.137Z,15.60
2022-09-24T15:03:39.076Z,15.70
2022-09-24T15:06:30.205Z,15.60
2022-09-24T15:08:57.947Z,15.60
2022-09-24T15:11:29.521Z,15.60
2022-09-24T15:14:13.562Z,15.60
2022-09-24T15:16:40.257Z,15.60
2022-09-24T15:19:06.928Z,15.60
2022-09-24T15:21:34.347Z,15.50
2022-09-24T15:24:01.342Z,15.50
2022-09-24T15:26:31.377Z,15.50
2022-09-24T15:28:59.290Z,15.50
2022-09-24T15:31:26.221Z,15.50
2022-09-24T15:33:53.549Z,15.50
2022-09-24T15:36:21.208Z,15.40
2022-09-24T15:38:49.929Z,15.40
2022-09-24T15:41:16.936Z,15.40
2022-09-24T15:43:43.661Z,15.40
2022-09-24T15:46:10.424Z,15.40
2022-09-24T15:48:37.683Z,15.40
2022-09-24T15:51:10.941Z,15.40
2022-09-24T15:53:41.361Z,15.30
2022-09-24T15:56:08.094Z,15.30
2022-09-24T15:58:35.059Z,15.30
2022-09-24T16:01:02.043Z,15.30
2022-09-24T16:03:31.821Z,15.20
2022-09-24T16:06:00.000Z,15.20
2022-09-24T16:08:27.034Z,15.20
2022-09-24T16:10:53.784Z,15.20
2022-09-24T16:13:23.290Z,15.10
2022-09-24T16:15:50.119Z,15.10
2022-09-24T16:18:22.237Z,15.10
2022-09-24T16:20:49.901Z,15.10
2022-09-24T16:23:17.747Z,15.10
2022-09-24T16:25:55.864Z,15.10
2022-09-24T16:28:22.842Z,15.00
2022-09-24T16:30:49.727Z,15.00
2022-09-24T16:33:16.641Z,15.00
2022-09-24T16:35:43.807Z,14.90
2022-09-24T16:38:10.675Z,15.00
2022-09-24T16:40:37.726Z,14.90
2022-09-24T16:43:04.766Z,14.80
2022-09-24T16:45:32.531Z,14.80
2022-09-24T16:47:59.763Z,14.90
2022-09-24T16:50:26.868Z,14.80
2022-09-24T16:52:55.372Z,14.80
2022-09-24T16:55:25.704Z,14.80
2022-09-24T16:57:53.135Z,14.80
2022-09-24T17:00:20.631Z,14.80
2022-09-24T17:02:47.458Z,14.70
2022-09-24T17:05:14.285Z,14.70
2022-09-24T17:07:40.983Z,14.70
2022-09-24T17:10:16.224Z,14.70
2022-09-24T17:12:50.344Z,14.70
2022-09-24T17:15:20.711Z,14.70
2022-09-24T17:17:50.715Z,14.70
2022-09-24T17:20:19.116Z,14.60
2022-09-24T17:22:48.126Z,14.60
2022-09-24T17:25:15.619Z,14.60
2022-09-24T17:27:44.875Z,14.60
2022-09-24T17:30:12.199Z,14.60
2022-09-24T17:32:38.978Z,14.60
2022-09-24T17:35:07.809Z,14.60
2022-09-24T17:37:35.232Z,14.60
2022-09-24T17:40:02.793Z,14.50
2022-09-24T17:42:31.608Z,14.60
2022-09-24T17:44:58.345Z,14.50
2022-09-24T17:47:45.044Z,14.50
2022-09-24T17:50:11.709Z,14.50
2022-09-24T17:52:38.387Z,14.50
2022-09-24T17:55:08.351Z,14.50
2022-09-24T17:57:35.090Z,14.50
2022-09-24T18:00:01.984Z,14.50
2022-09-24T18:02:28.998Z,14.40
2022-09-24T18:04:55.742Z,14.50
2022-09-24T18:07:24.797Z,14.50
2022-09-24T18:09:55.890Z,14.50
2022-09-24T18:12:22.755Z,14.50
2022-09-24T18:14:49.440Z,14.40
2022-09-24T18:17:16.163Z,14.40
2022-09-24T18:19:42.856Z,14.40
2022-09-24T18:22:11.098Z,14.40
2022-09-24T18:24:37.754Z,14.30
2022-09-24T18:27:05.201Z,14.40
2022-09-24T18:29:31.955Z,14.30
2022-09-24T18:31:58.843Z,14.30
2022-09-24T18:34:25.521Z,14.30
2022-09-24T18:36:52.308Z,14.20
2022-09-24T18:39:24.973Z,14.30
2022-09-24T18:41:52.712Z,14.20
2022-09-24T18:44:19.647Z,14.20
2022-09-24T18:46:46.667Z,14.20
2022-09-24T18:49:13.646Z,14.20
2022-09-24T18:51:40.486Z,14.20
2022-09-24T18:54:18.047Z,14.20
2022-09-24T18:56:45.633Z,14.20
2022-09-24T18:59:15.444Z,14.20
2022-09-24T19:01:43.191Z,14.10
2022-09-24T19:04:11.661Z,14.20
2022-09-24T19:06:41.114Z,14.10
2022-09-24T19:09:09.103Z,14.10
2022-09-24T19:11:36.996Z,14.10
2022-09-24T19:14:03.994Z,14.10
2022-09-24T19:16:31.069Z,14.10
2022-09-24T19:18:59.439Z,14.10
2022-09-24T19:21:26.230Z,14.10
2022-09-24T19:23:56.239Z,14.00
2022-09-24T19:26:26.415Z,14.00
2022-09-24T19:28:54.093Z,14.00
2022-09-24T19:31:27.312Z,13.90
2022-09-24T19:33:55.222Z,14.00
2022-09-24T19:36:22.441Z,14.00
2022-09-24T19:38:50.196Z,13.90
2022-09-24T19:41:26.486Z,13.90
2022-09-24T19:44:01.101Z,13.90
2022-09-24T19:46:34.526Z,13.90
2022-09-24T19:49:01.870Z,13.90
2022-09-24T19:51:31.008Z,13.80
2022-09-24T19:54:03.302Z,13.90
2022-09-24T19:56:31.904Z,13.90
2022-09-24T19:59:00.878Z,13.90
2022-09-24T20:01:32.213Z,13.90
2022-09-24T20:04:02.006Z,13.80
2022-09-24T20:06:31.185Z,13.80
2022-09-24T20:08:59.335Z,13.80
2022-09-24T20:11:27.203Z,13.80
2022-09-24T20:13:56.195Z,13.80
2022-09-24T20:16:26.131Z,13.80
2022-09-24T20:18:56.643Z,13.80
2022-09-24T20:21:28.786Z,13.80
2022-09-24T20:23:57.547Z,13.70
2022-09-24T20:26:43.723Z,13.70
2022-09-24T20:29:11.936Z,13.70
2022-09-24T20:31:45.738Z,13.70
2022-09-24T20:34:12.557Z,13.70
2022-09-24T20:36:39.307Z,13.70
2022-09-24T20:39:06.001Z,13.70
2022-09-24T20:41:32.769Z,13.60
2022-09-24T20:43:59.438Z,13.60
2022-09-24T20:46:28.430Z,13.60
2022-09-24T20:49:00.203Z,13.60
2022-09-24T20:51:33.463Z,13.60
2022-09-24T20:54:00.856Z,13.60
2022-09-24T20:56:30.558Z,13.60
2022-09-24T20:58:57.632Z,13.50
2022-09-24T21:01:24.888Z,13.60
2022-09-24T21:03:51.918Z,13.50
2022-09-24T21:06:22.747Z,13.50
2022-09-24T21:08:49.886Z,13.50
2022-09-24T21:11:19.534Z,13.50
2022-09-24T21:13:51.878Z,13.50
2022-09-24T21:16:20.716Z,13.50
2022-09-24T21:18:48.677Z,13.50
2022-09-24T21:21:21.200Z,13.50
2022-09-24T21:23:50.370Z,13.50
2022-09-24T21:26:18.525Z,13.50
2022-09-24T21:28:50.750Z,13.50
2022-09-24T21:31:23.783Z,13.50
2022-09-24T21:33:52.863Z,13.50
2022-09-24T21:36:21.342Z,13.50
2022-09-24T21:38:54.493Z,13.50
2022-09-24T21:41:34.862Z,13.60
2022-09-24T21:44:02.013Z,13.50
2022-09-24T21:46:31.284Z,13.60
2022-09-24T21:49:01.777Z,13.60
2022-09-24T21:51:29.994Z,13.60
2022-09-24T21:54:04.727Z,13.50
2022-09-24T21:56:33.118Z,13.50
2022-09-24T21:58:59.973Z,13.60
2022-09-24T22:01:29.837Z,13.60
2022-09-24T22:04:03.997Z,13.60
2022-09-24T22:06:31.400Z,13.50
2022-09-24T22:09:02.556Z,13.50
2022-09-24T22:11:29.572Z,13.60
2022-09-24T22:14:01.028Z,13.60
2022-09-24T22:16:29.253Z,13.60
2022-09-24T22:18:56.198Z,13.60
2022-09-24T22:21:23.262Z,13.60
2022-09-24T22:23:50.129Z,13.60
2022-09-24T22:26:18.667Z,13.60
2022-09-24T22:28:45.708Z,13.60
2022-09-24T22:31:15.325Z,13.60
2022-09-24T22:34:01.179Z,13.60
2022-09-24T22:36:30.486Z,13.60
2022-09-24T22:39:02.375Z,13.50
2022-09-24T22:41:30.313Z,13.60
2022-09-24T22:43:58.146Z,13.50
2022-09-24T22:46:26.885Z,13.50
2022-09-24T22:48:57.097Z,13.50
2022-09-24T22:51:26.915Z,13.40
2022-09-24T22:53:54.515Z,13.40
2022-09-24T22:56:25.681Z,13.40
2022-09-24T22:58:54.826Z,13.40
2022-09-24T23:01:28.461Z,13.40
2022-09-24T23:03:56.919Z,13.40
2022-09-24T23:06:24.463Z,13.40
2022-09-24T23:08:53.252Z,13.40
2022-09-24T23:11:24.593Z,13.30
2022-09-24T23:13:54.837Z,13.40
2022-09-24T23:16:24.773Z,13.30
2022-09-24T23:18:55.116Z,13.30
2022-09-24T23:21:24.073Z,13.30
2022-09-24T23:23:56.154Z,13.30
2022-09-24T23:26:24.549Z,13.30
2022-09-24T23:28:53.234Z,13.30
2022-09-24T23:31:27.229Z,13.30
2022-09-24T23:33:55.809Z,13.30
2022-09-24T23:36:23.810Z,13.30
2022-09-24T23:38:50.688Z,13.20
2022-09-24T23:41:17.490Z,13.20
2022-09-24T23:43:44.257Z,13.20
2022-09-24T23:46:11.493Z,13.30
2022-09-24T23:48:38.462Z,13.20
2022-09-24T23:51:06.685Z,13.20
2022-09-24T23:53:34.367Z,13.20
2022-09-24T23:56:02.097Z,13.10
2022-09-24T23:58:29.350Z,13.20
